Time;durP1;ratioP1;P1;durP2;ratioP2;P2;SDS_P1;SDS_P2;PMS_P1;PMS_P2;Temp;Humidity;BMP_temperature;BMP_pressure;BME280_temperature;BME280_humidity;BME280_pressure;Samples;Min_cycle;Max_cycle;Signal;HPM_P1;HPM_P2
2023/02/01 00:09:38;;;;;;;9.07;4.90;;;;;;;4.57;100.00;101104.75;20888211;28;20060;-74
2023/02/01 00:19:39;;;;;;;9.68;4.50;;;;;;;4.64;100.00;101096.22;20889646;28;20064;-73
2023/02/01 00:29:41;;;;;;;10.07;4.47;;;;;;;4.55;100.00;101089.16;20888617;28;20053;-71
2023/02/01 00:39:42;;;;;;;10.15;4.20;;;;;;;4.59;100.00;101069.31;20884742;28;20044;-71
2023/02/01 00:50:01;;;;;;;10.63;4.30;;;;;;;4.61;100.00;101045.19;20886805;28;20045;-72
2023/02/01 01:00:20;;;;;;;8.40;3.92;;;;;;;4.53;100.00;101045.88;20885164;28;20084;-72
2023/02/01 01:10:39;;;;;;;9.93;4.03;;;;;;;4.55;100.00;101039.88;20884483;28;20131;-73
2023/02/01 01:20:58;;;;;;;7.03;3.17;;;;;;;4.62;100.00;101040.88;20884728;28;20896;-72
2023/02/01 01:31:17;;;;;;;9.18;3.67;;;;;;;4.59;100.00;101041.66;20883968;28;20045;-72
2023/02/01 01:41:35;;;;;;;6.65;3.20;;;;;;;4.62;100.00;101040.88;20887220;28;20429;-72
2023/02/01 01:51:54;;;;;;;7.00;3.50;;;;;;;4.71;100.00;101035.84;20892530;28;20124;-72
2023/02/01 02:02:13;;;;;;;6.95;3.00;;;;;;;4.67;100.00;101005.50;20897627;28;20052;-72
2023/02/01 02:12:32;;;;;;;6.93;3.03;;;;;;;4.75;100.00;100975.41;20898399;28;20049;-72
2023/02/01 02:22:51;;;;;;;5.20;2.42;;;;;;;4.81;100.00;101009.22;20895908;28;20493;-73
2023/02/01 02:33:10;;;;;;;8.35;3.05;;;;;;;4.76;100.00;101008.25;20894274;28;20486;-74
2023/02/01 03:04:44;;;;;;;5.57;2.67;;;;;;;4.75;100.00;100987.50;20902155;28;20049;-72
2023/02/01 03:15:03;;;;;;;7.10;3.20;;;;;;;4.72;100.00;100954.59;20893294;28;20524;-72
2023/02/01 03:25:04;;;;;;;9.55;3.80;;;;;;;4.76;100.00;100961.56;20894265;28;20048;-73
2023/02/01 03:35:06;;;;;;;8.40;4.30;;;;;;;4.80;100.00;100960.78;20891066;28;20096;-72
2023/02/01 03:45:07;;;;;;;8.52;3.90;;;;;;;4.92;100.00;100962.69;20891085;28;20045;-72
2023/02/01 03:55:08;;;;;;;8.13;4.07;;;;;;;4.89;100.00;100973.03;20888977;28;20174;-72
2023/02/01 04:05:09;;;;;;;8.90;4.40;;;;;;;4.94;100.00;100986.09;20889608;28;20485;-72
2023/02/01 04:15:28;;;;;;;7.45;3.63;;;;;;;4.82;100.00;100997.13;20888369;28;20528;-72
2023/02/01 04:25:30;;;;;;;6.45;2.80;;;;;;;4.76;100.00;100992.69;20888438;28;20056;-72
2023/02/01 04:35:31;;;;;;;7.13;2.78;;;;;;;4.60;100.00;100980.31;20885913;28;20178;-75
2023/02/01 04:45:32;;;;;;;6.45;2.90;;;;;;;4.61;100.00;100987.25;20888716;28;20053;-77
2023/02/01 04:55:34;;;;;;;7.82;2.92;;;;;;;4.51;100.00;100969.78;20888019;28;20115;-75
2023/02/01 05:05:35;;;;;;;7.60;3.83;;;;;;;4.60;100.00;100985.50;20887147;28;20053;-75
2023/02/01 05:15:36;;;;;;;7.88;3.78;;;;;;;4.51;100.00;100951.63;20893120;28;20049;-78
2023/02/01 05:25:55;;;;;;;11.35;4.03;;;;;;;4.58;100.00;100967.31;20908951;28;20613;-74
2023/02/01 05:36:14;;;;;;;9.27;4.68;;;;;;;4.65;100.00;100976.09;20903459;28;20049;-75
2023/02/01 05:46:15;;;;;;;11.77;5.15;;;;;;;4.63;100.00;100970.84;20913921;28;20428;-79
2023/02/01 05:56:17;;;;;;;14.95;6.35;;;;;;;4.66;100.00;100980.44;20908327;28;20053;-81
2023/02/01 06:06:19;;;;;;;17.67;7.53;;;;;;;4.75;100.00;100975.41;20897548;28;20061;-83
2023/02/01 06:16:20;;;;;;;15.18;7.18;;;;;;;4.70;100.00;100969.25;20911311;28;20052;-80
2023/02/01 06:26:22;;;;;;;19.88;8.52;;;;;;;4.77;100.00;100965.91;20920634;28;20048;-80
2023/02/01 06:36:23;;;;;;;20.95;8.48;;;;;;;4.77;100.00;100968.50;20903837;28;20053;-80
2023/02/01 06:46:42;;;;;;;21.15;7.30;;;;;;;4.86;100.00;100983.34;20892298;28;20045;-82
2023/02/01 06:57:01;;;;;;;17.80;6.85;;;;;;;5.01;100.00;100999.16;20915888;23;20045;-70
2023/02/01 07:07:22;;;;;;;20.25;8.02;;;;;;;4.99;100.00;101013.00;20874086;28;20069;-70
2023/02/01 07:17:40;;;;;;;20.42;7.57;;;;;;;5.00;100.00;100997.44;20891769;28;20052;-69
2023/02/01 07:28:00;;;;;;;18.63;7.35;;;;;;;4.91;100.00;100981.72;20894545;28;20072;-70
2023/02/01 07:38:21;;;;;;;17.60;7.15;;;;;;;4.93;100.00;100992.97;20892103;28;20049;-69
2023/02/01 07:48:40;;;;;;;22.45;7.53;;;;;;;4.87;100.00;100980.78;20888722;28;20057;-69
2023/02/01 07:59:00;;;;;;;17.00;7.25;;;;;;;4.98;100.00;100988.72;20873730;28;20041;-69
2023/02/01 08:09:19;;;;;;;19.63;6.88;;;;;;;5.15;100.00;100987.28;20877808;28;20497;-69
2023/02/01 08:19:38;;;;;;;13.82;5.38;;;;;;;5.26;100.00;101018.59;20883596;28;20040;-69
2023/02/01 08:29:56;;;;;;;17.33;5.65;;;;;;;5.31;100.00;101037.72;20890906;28;20048;-70
2023/02/01 08:40:15;;;;;;;18.85;5.63;;;;;;;5.30;100.00;101035.97;20869472;28;20041;-70
2023/02/01 08:50:34;;;;;;;18.45;5.30;;;;;;;5.40;100.00;101056.03;20884886;28;20044;-70
2023/02/01 09:00:53;;;;;;;20.42;6.03;;;;;;;5.56;100.00;101045.91;20873667;28;20754;-70
2023/02/01 09:11:12;;;;;;;15.63;5.03;;;;;;;5.76;100.00;101069.59;20887386;28;20068;-71
2023/02/01 09:21:13;;;;;;;13.43;4.72;;;;;;;5.76;100.00;101043.59;20888767;28;20053;-70
2023/02/01 09:31:14;;;;;;;15.77;4.50;;;;;;;5.95;100.00;101057.78;20886443;28;20045;-70
2023/02/01 09:41:16;;;;;;;19.05;5.63;;;;;;;5.86;100.00;101071.47;20882765;28;20083;-70
2023/02/01 09:51:17;;;;;;;19.98;4.60;;;;;;;5.99;100.00;101075.13;20880075;28;20057;-70
2023/02/01 10:01:18;;;;;;;22.83;6.32;;;;;;;6.09;100.00;101123.81;20877665;28;20056;-71
2023/02/01 10:11:20;;;;;;;18.77;5.15;;;;;;;6.12;100.00;101116.03;20881609;28;20083;-69
2023/02/01 10:21:21;;;;;;;25.77;5.70;;;;;;;6.00;100.00;101114.16;20893282;28;20060;-69
2023/02/01 10:31:22;;;;;;;20.92;4.63;;;;;;;6.20;100.00;101108.34;20886327;28;20056;-70
2023/02/01 10:41:24;;;;;;;17.83;4.82;;;;;;;6.29;100.00;101113.69;20892541;28;20505;-71
2023/02/01 10:51:25;;;;;;;22.60;4.32;;;;;;;6.28;100.00;101118.00;20894442;28;20060;-70
2023/02/01 11:01:26;;;;;;;23.05;5.05;;;;;;;6.16;100.00;101110.91;20889915;28;20106;-71
2023/02/01 11:11:28;;;;;;;23.85;5.22;;;;;;;6.24;100.00;101084.16;20892369;28;20067;-73
2023/02/01 11:21:30;;;;;;;23.73;4.93;;;;;;;6.39;100.00;101041.00;20891726;28;20144;-72
2023/02/01 11:31:31;;;;;;;22.63;4.20;;;;;;;6.40;100.00;101036.66;20888303;28;20049;-73
2023/02/01 11:41:33;;;;;;;16.45;4.65;;;;;;;6.48;100.00;101031.56;20890942;28;20064;-72
2023/02/01 11:51:34;;;;;;;21.77;4.00;;;;;;;6.37;100.00;101037.50;20890467;28;20057;-71
2023/02/01 12:01:35;;;;;;;21.45;3.67;;;;;;;6.37;100.00;101024.50;20889009;28;20072;-71
2023/02/01 12:11:36;;;;;;;20.33;3.90;;;;;;;6.45;100.00;101031.50;20884462;28;20128;-74
2023/02/01 12:21:39;;;;;;;17.42;3.33;;;;;;;6.49;100.00;101028.09;20882888;28;20532;-71
2023/02/01 12:31:40;;;;;;;15.50;3.78;;;;;;;6.45;100.00;101034.09;20884421;28;20037;-71
2023/02/01 12:41:42;;;;;;;15.25;3.58;;;;;;;6.55;100.00;101017.75;20884965;28;20055;-70
2023/02/01 12:51:43;;;;;;;18.23;3.72;;;;;;;6.56;100.00;101027.28;20886571;28;20138;-71
2023/02/01 13:01:45;;;;;;;15.82;3.92;;;;;;;6.35;100.00;101015.78;20885211;28;20053;-73
2023/02/01 13:11:48;;;;;;;18.67;4.60;;;;;;;6.39;100.00;100996.78;20884080;28;20132;-71
2023/02/01 13:21:49;;;;;;;16.80;3.17;;;;;;;6.52;100.00;100976.97;20884848;28;20519;-71
2023/02/01 13:31:51;;;;;;;15.00;2.92;;;;;;;6.56;100.00;100946.63;20878497;28;20107;-70
2023/02/01 13:41:53;;;;;;;18.95;4.00;;;;;;;6.69;100.00;100953.69;20879468;28;20629;-70
2023/02/01 13:51:55;;;;;;;16.08;3.20;;;;;;;6.80;100.00;100941.63;20898831;28;20103;-71
2023/02/01 14:01:56;;;;;;;10.35;2.88;;;;;;;6.90;100.00;100942.63;20895075;28;20053;-73
2023/02/01 14:11:57;;;;;;;17.45;3.15;;;;;;;6.71;100.00;100954.59;20893284;28;20052;-71
2023/02/01 14:22:01;;;;;;;19.23;3.25;;;;;;;6.77;100.00;100966.78;20893686;28;20529;-71
2023/02/01 14:32:02;;;;;;;10.50;2.72;;;;;;;6.84;100.00;100966.84;20895211;28;20167;-71
2023/02/01 14:42:04;;;;;;;17.08;3.25;;;;;;;6.83;100.00;100940.81;20891004;28;20079;-71
2023/02/01 14:52:05;;;;;;;14.23;3.13;;;;;;;6.94;100.00;100953.03;20887487;28;20052;-71
2023/02/01 15:02:06;;;;;;;17.38;2.90;;;;;;;6.91;100.00;100950.44;20886616;28;20057;-72
2023/02/01 15:12:07;;;;;;;9.88;2.70;;;;;;;6.92;100.00;100973.00;20891378;28;20060;-77
2023/02/01 15:22:09;;;;;;;19.73;3.63;;;;;;;6.88;100.00;100986.84;20886907;28;20049;-77
2023/02/01 15:32:11;;;;;;;21.20;3.55;;;;;;;6.84;100.00;100979.84;20885837;28;20053;-74
2023/02/01 15:42:15;;;;;;;16.33;2.95;;;;;;;6.85;100.00;100986.84;20889203;28;20572;-76
2023/02/01 15:52:16;;;;;;;16.08;3.45;;;;;;;6.80;100.00;100988.50;20885456;28;20075;-75
2023/02/01 16:02:17;;;;;;;13.48;3.50;;;;;;;6.77;100.00;100972.88;20873218;28;20122;-75
2023/02/01 16:12:19;;;;;;;18.65;3.53;;;;;;;6.89;100.00;100962.53;20880001;28;20080;-75
2023/02/01 16:22:20;;;;;;;14.35;3.17;;;;;;;6.77;100.00;100985.00;20865494;28;20448;-74
2023/02/01 16:32:22;;;;;;;19.42;4.07;;;;;;;6.63;100.00;100995.28;20863685;28;20056;-75
2023/02/01 16:53:07;;;;;;;18.55;3.47;;;;;;;6.67;100.00;101012.69;20863750;28;20108;-80
2023/02/01 17:03:09;;;;;;;14.13;3.28;;;;;;;6.55;100.00;101007.34;20830583;28;20049;-81
2023/02/01 17:13:10;;;;;;;21.25;3.78;;;;;;;6.55;100.00;101002.13;20877597;28;20116;-80
2023/02/01 17:23:11;;;;;;;25.83;3.90;;;;;;;6.29;100.00;100986.25;20894019;28;20049;-82
2023/02/01 17:33:13;;;;;;;18.48;3.47;;;;;;;6.24;100.00;101004.41;20934796;28;20107;-81
2023/02/01 17:43:22;;;;;;;17.02;3.00;;;;;;;6.25;100.00;100992.28;20943573;28;20049;-81
2023/02/01 17:53:29;;;;;;;22.92;3.50;;;;;;;6.27;100.00;100993.16;20934332;28;20471;-82
2023/02/01 18:03:34;;;;;;;16.92;3.22;;;;;;;6.22;100.00;100987.91;20938175;28;20056;-80
2023/02/01 18:13:35;;;;;;;21.20;3.47;;;;;;;6.28;100.00;101008.78;20914752;28;20042;-80
2023/02/01 18:23:37;;;;;;;15.68;3.72;;;;;;;6.34;100.00;101001.06;20904739;28;20077;-81
2023/02/01 18:33:38;;;;;;;18.98;3.75;;;;;;;6.26;100.00;100999.22;20903134;28;20057;-79
2023/02/01 18:43:39;;;;;;;26.90;5.85;;;;;;;6.35;100.00;101012.31;20910373;28;20076;-81
2023/02/01 18:53:40;;;;;;;17.63;3.28;;;;;;;6.37;100.00;100993.28;20896763;28;20045;-80
2023/02/01 19:03:42;;;;;;;23.70;5.53;;;;;;;6.34;100.00;100998.44;20912042;28;20041;-82
2023/02/01 19:13:54;;;;;;;16.27;3.17;;;;;;;6.41;100.00;101000.25;20923233;28;20049;-82
2023/02/01 19:23:55;;;;;;;16.02;3.78;;;;;;;6.29;100.00;100981.94;20919819;28;20079;-81
2023/02/01 19:33:56;;;;;;;23.73;3.53;;;;;;;6.40;100.00;100987.25;20927792;28;20037;-81
2023/02/01 19:43:58;;;;;;;20.13;4.00;;;;;;;6.50;100.00;100998.59;20925812;28;20061;-81
2023/02/01 19:53:59;;;;;;;19.83;3.40;;;;;;;6.51;100.00;101010.75;20918090;28;20107;-81
2023/02/01 20:04:05;;;;;;;15.10;3.75;;;;;;;6.60;100.00;101021.25;20904900;28;20100;-81
2023/02/01 20:14:07;;;;;;;25.13;3.80;;;;;;;6.69;100.00;101039.56;20932302;28;20064;-82
2023/02/01 20:24:08;;;;;;;21.45;3.90;;;;;;;6.67;100.00;101056.91;20933615;28;20466;-82
2023/02/01 20:34:09;;;;;;;20.95;3.25;;;;;;;6.67;100.00;101069.94;20904757;28;20060;-81
2023/02/01 20:44:11;;;;;;;22.00;4.68;;;;;;;6.67;100.00;101046.50;20898691;28;20159;-81
2023/02/01 20:54:12;;;;;;;19.73;4.05;;;;;;;6.63;100.00;101052.53;20900267;28;20045;-81
2023/02/01 21:04:13;;;;;;;19.35;4.00;;;;;;;6.60;100.00;101057.69;20882435;28;20101;-81
2023/02/01 21:14:15;;;;;;;20.40;3.65;;;;;;;6.63;100.00;101042.13;20912473;28;20053;-80
2023/02/01 21:24:16;;;;;;;23.27;4.85;;;;;;;6.54;100.00;101042.03;20919106;28;20055;-81
2023/02/01 21:34:17;;;;;;;19.75;3.97;;;;;;;6.48;100.00;101029.81;20907525;28;20452;-83
2023/02/01 21:44:19;;;;;;;23.15;4.38;;;;;;;6.47;100.00;101030.69;20899790;28;20057;-82
2023/02/01 21:54:20;;;;;;;21.05;5.10;;;;;;;6.39;100.00;101033.19;20877271;28;20414;-82
2023/02/01 22:04:24;;;;;;;19.25;4.80;;;;;;;6.42;100.00;101048.84;20878698;28;20038;-82
2023/02/01 22:14:26;;;;;;;22.70;4.57;;;;;;;6.42;100.00;101047.97;20898976;28;20060;-82
2023/02/01 22:24:27;;;;;;;18.42;4.05;;;;;;;6.38;100.00;101067.84;20908043;28;20179;-82
2023/02/01 22:34:28;;;;;;;18.25;3.88;;;;;;;6.34;100.00;101042.66;20906215;28;20056;-82
2023/02/01 22:44:30;;;;;;;20.75;3.78;;;;;;;6.31;100.00;101065.16;20893238;28;20049;-81
2023/02/01 22:54:31;;;;;;;17.80;4.80;;;;;;;6.28;100.00;101068.59;20888332;28;20540;-82
2023/02/01 23:04:32;;;;;;;21.67;4.20;;;;;;;6.33;100.00;101084.28;20884697;28;20045;-81
2023/02/01 23:15:04;;;;;;;20.85;4.65;;;;;;;6.27;100.00;101074.63;20885213;28;20045;-82
2023/02/01 23:24:55;;;;;;;21.63;3.70;;;;;;;6.26;100.00;101066.81;20887494;28;20056;-82
2023/02/01 23:34:56;;;;;;;18.40;4.20;;;;;;;6.30;100.00;101058.22;20908453;28;20444;-82
2023/02/01 23:44:57;;;;;;;22.50;4.78;;;;;;;6.21;100.00;101056.38;20899961;28;20682;-83
2023/02/01 23:54:59;;;;;;;21.55;4.40;;;;;;;6.24;100.00;101061.63;20889594;28;20100;-81
